sensor_id;sensor_type;location;lat;lon;timestamp;pressure;altitude;pressure_sealevel;temperature;humidity
76868;BME280;66168;45.478;11.060;2023-03-12T00:03:42;99794.14;;;13.50;52.33
76868;BME280;66168;45.478;11.060;2023-03-12T00:06:09;99792.13;;;13.49;52.31
76868;BME280;66168;45.478;11.060;2023-03-12T00:08:37;99798.98;;;13.49;52.01
76868;BME280;66168;45.478;11.060;2023-03-12T00:11:08;99800.52;;;13.50;52.15
76868;BME280;66168;45.478;11.060;2023-03-12T00:13:36;99803.36;;;13.49;52.07
76868;BME280;66168;45.478;11.060;2023-03-12T00:16:11;99809.27;;;13.43;52.09
76868;BME280;66168;45.478;11.060;2023-03-12T00:18:39;99810.80;;;13.42;52.33
76868;BME280;66168;45.478;11.060;2023-03-12T00:21:07;99811.24;;;13.42;52.38
76868;BME280;66168;45.478;11.060;2023-03-12T00:23:34;99817.85;;;13.42;52.63
76868;BME280;66168;45.478;11.060;2023-03-12T00:26:05;99824.20;;;13.41;52.78
76868;BME280;66168;45.478;11.060;2023-03-12T00:28:32;99829.16;;;13.40;52.73
76868;BME280;66168;45.478;11.060;2023-03-12T00:31:12;99833.91;;;13.40;52.93
76868;BME280;66168;45.478;11.060;2023-03-12T00:33:39;99842.60;;;13.39;52.99
76868;BME280;66168;45.478;11.060;2023-03-12T00:36:06;99844.71;;;13.37;52.89
76868;BME280;66168;45.478;11.060;2023-03-12T00:38:33;99844.94;;;13.33;53.07
76868;BME280;66168;45.478;11.060;2023-03-12T00:41:00;99844.58;;;13.32;53.25
76868;BME280;66168;45.478;11.060;2023-03-12T00:43:27;99844.95;;;13.30;53.32
76868;BME280;66168;45.478;11.060;2023-03-12T00:45:53;99853.36;;;13.32;53.30
76868;BME280;66168;45.478;11.060;2023-03-12T00:48:20;99856.17;;;13.30;53.16
76868;BME280;66168;45.478;11.060;2023-03-12T00:50:47;99855.20;;;13.30;53.00
76868;BME280;66168;45.478;11.060;2023-03-12T00:53:15;99859.23;;;13.30;52.80
76868;BME280;66168;45.478;11.060;2023-03-12T00:55:41;99858.55;;;13.31;52.83
76868;BME280;66168;45.478;11.060;2023-03-12T00:58:08;99859.23;;;13.33;52.89
76868;BME280;66168;45.478;11.060;2023-03-12T01:00:35;99866.44;;;13.31;52.82
76868;BME280;66168;45.478;11.060;2023-03-12T01:03:01;99865.20;;;13.30;52.79
76868;BME280;66168;45.478;11.060;2023-03-12T01:05:28;99859.82;;;13.30;52.68
76868;BME280;66168;45.478;11.060;2023-03-12T01:07:55;99863.08;;;13.29;52.64
76868;BME280;66168;45.478;11.060;2023-03-12T01:10:22;99862.01;;;13.31;52.61
76868;BME280;66168;45.478;11.060;2023-03-12T01:12:49;99858.88;;;13.33;52.63
76868;BME280;66168;45.478;11.060;2023-03-12T01:15:16;99862.36;;;13.32;52.47
76868;BME280;66168;45.478;11.060;2023-03-12T01:17:43;99870.66;;;13.32;52.25
76868;BME280;66168;45.478;11.060;2023-03-12T01:20:10;99872.44;;;13.31;52.00
76868;BME280;66168;45.478;11.060;2023-03-12T01:22:37;99877.50;;;13.30;51.81
76868;BME280;66168;45.478;11.060;2023-03-12T01:25:04;99882.33;;;13.30;51.74
76868;BME280;66168;45.478;11.060;2023-03-12T01:27:31;99882.42;;;13.31;51.90
76868;BME280;66168;45.478;11.060;2023-03-12T01:29:58;99885.87;;;13.31;51.73
76868;BME280;66168;45.478;11.060;2023-03-12T01:32:25;99892.73;;;13.30;51.23
76868;BME280;66168;45.478;11.060;2023-03-12T01:34:52;99895.25;;;13.26;51.12
76868;BME280;66168;45.478;11.060;2023-03-12T01:37:18;99894.80;;;13.23;51.33
76868;BME280;66168;45.478;11.060;2023-03-12T01:39:45;99899.02;;;13.20;51.28
76868;BME280;66168;45.478;11.060;2023-03-12T01:42:12;99896.84;;;13.19;50.94
76868;BME280;66168;45.478;11.060;2023-03-12T01:44:56;99904.11;;;13.17;51.07
76868;BME280;66168;45.478;11.060;2023-03-12T01:47:25;99907.77;;;13.15;50.84
76868;BME280;66168;45.478;11.060;2023-03-12T01:49:54;99915.41;;;13.16;50.81
76868;BME280;66168;45.478;11.060;2023-03-12T01:52:31;99926.63;;;13.19;50.83
76868;BME280;66168;45.478;11.060;2023-03-12T01:55:10;99928.66;;;13.20;50.54
76868;BME280;66168;45.478;11.060;2023-03-12T01:57:55;99936.77;;;13.19;50.33
76868;BME280;66168;45.478;11.060;2023-03-12T02:00:25;99937.33;;;13.20;50.54
76868;BME280;66168;45.478;11.060;2023-03-12T02:02:57;99936.18;;;13.22;50.47
76868;BME280;66168;45.478;11.060;2023-03-12T02:05:39;99946.02;;;13.24;50.43
76868;BME280;66168;45.478;11.060;2023-03-12T02:08:10;99946.59;;;13.26;50.43
76868;BME280;66168;45.478;11.060;2023-03-12T02:10:38;99942.04;;;13.27;50.34
76868;BME280;66168;45.478;11.060;2023-03-12T02:13:05;99939.53;;;13.29;50.31
76868;BME280;66168;45.478;11.060;2023-03-12T02:15:34;99937.97;;;13.30;49.33
76868;BME280;66168;45.478;11.060;2023-03-12T02:18:02;99941.52;;;13.27;49.66
76868;BME280;66168;45.478;11.060;2023-03-12T02:20:41;99939.09;;;13.24;49.48
76868;BME280;66168;45.478;11.060;2023-03-12T02:25:48;99950.14;;;13.26;49.55
76868;BME280;66168;45.478;11.060;2023-03-12T02:28:19;99953.00;;;13.27;49.21
76868;BME280;66168;45.478;11.060;2023-03-12T02:30:50;99955.80;;;13.26;47.99
76868;BME280;66168;45.478;11.060;2023-03-12T02:33:18;99960.83;;;13.24;48.72
76868;BME280;66168;45.478;11.060;2023-03-12T02:35:46;99966.83;;;13.21;47.91
76868;BME280;66168;45.478;11.060;2023-03-12T02:38:35;99968.40;;;13.18;48.24
76868;BME280;66168;45.478;11.060;2023-03-12T02:41:31;99975.66;;;13.18;48.42
76868;BME280;66168;45.478;11.060;2023-03-12T02:44:03;99981.60;;;13.13;48.24
76868;BME280;66168;45.478;11.060;2023-03-12T02:46:35;99989.29;;;13.13;48.78
76868;BME280;66168;45.478;11.060;2023-03-12T02:49:24;99996.04;;;13.11;48.70
76868;BME280;66168;45.478;11.060;2023-03-12T02:51:52;99999.09;;;13.10;49.08
76868;BME280;66168;45.478;11.060;2023-03-12T02:54:21;100003.73;;;13.11;49.27
76868;BME280;66168;45.478;11.060;2023-03-12T02:56:49;100005.45;;;13.09;49.27
76868;BME280;66168;45.478;11.060;2023-03-12T02:59:17;100009.70;;;13.06;49.24
76868;BME280;66168;45.478;11.060;2023-03-12T03:01:54;100014.55;;;12.99;49.45
76868;BME280;66168;45.478;11.060;2023-03-12T03:04:22;100015.13;;;12.95;49.55
76868;BME280;66168;45.478;11.060;2023-03-12T03:06:49;100018.13;;;12.93;49.69
76868;BME280;66168;45.478;11.060;2023-03-12T03:09:17;100019.90;;;12.94;49.64
76868;BME280;66168;45.478;11.060;2023-03-12T03:11:44;100022.52;;;12.92;49.56
76868;BME280;66168;45.478;11.060;2023-03-12T03:14:12;100027.56;;;12.90;49.32
76868;BME280;66168;45.478;11.060;2023-03-12T03:16:39;100032.37;;;12.87;49.40
76868;BME280;66168;45.478;11.060;2023-03-12T03:19:06;100041.94;;;12.84;49.15
76868;BME280;66168;45.478;11.060;2023-03-12T03:21:33;100050.39;;;12.79;49.17
76868;BME280;66168;45.478;11.060;2023-03-12T03:24:00;100054.77;;;12.78;49.25
76868;BME280;66168;45.478;11.060;2023-03-12T03:26:27;100058.55;;;12.75;48.78
76868;BME280;66168;45.478;11.060;2023-03-12T03:28:53;100064.05;;;12.69;48.62
76868;BME280;66168;45.478;11.060;2023-03-12T03:31:21;100063.95;;;12.64;49.09
76868;BME280;66168;45.478;11.060;2023-03-12T03:33:48;100066.75;;;12.66;49.04
76868;BME280;66168;45.478;11.060;2023-03-12T03:36:15;100063.64;;;12.62;48.77
76868;BME280;66168;45.478;11.060;2023-03-12T03:38:49;100065.31;;;12.66;48.98
76868;BME280;66168;45.478;11.060;2023-03-12T03:41:17;100068.93;;;12.67;48.92
76868;BME280;66168;45.478;11.060;2023-03-12T03:43:46;100068.97;;;12.69;49.16
76868;BME280;66168;45.478;11.060;2023-03-12T03:46:14;100071.73;;;12.71;49.22
76868;BME280;66168;45.478;11.060;2023-03-12T03:48:44;100076.58;;;12.73;48.92
76868;BME280;66168;45.478;11.060;2023-03-12T03:51:11;100078.91;;;12.72;49.06
76868;BME280;66168;45.478;11.060;2023-03-12T03:53:40;100086.21;;;12.75;49.07
76868;BME280;66168;45.478;11.060;2023-03-12T03:56:10;100095.13;;;12.76;48.63
76868;BME280;66168;45.478;11.060;2023-03-12T03:58:40;100099.29;;;12.78;48.93
76868;BME280;66168;45.478;11.060;2023-03-12T04:01:07;100100.77;;;12.78;48.41
76868;BME280;66168;45.478;11.060;2023-03-12T04:03:35;100106.99;;;12.79;48.90
76868;BME280;66168;45.478;11.060;2023-03-12T04:06:04;100110.28;;;12.80;48.59
76868;BME280;66168;45.478;11.060;2023-03-12T04:08:33;100119.44;;;12.78;48.47
76868;BME280;66168;45.478;11.060;2023-03-12T04:11:28;100120.25;;;12.77;48.57
76868;BME280;66168;45.478;11.060;2023-03-12T04:13:56;100125.33;;;12.69;48.55
76868;BME280;66168;45.478;11.060;2023-03-12T04:16:24;100129.54;;;12.67;48.74
76868;BME280;66168;45.478;11.060;2023-03-12T04:18:52;100135.75;;;12.67;48.61
76868;BME280;66168;45.478;11.060;2023-03-12T04:21:19;100138.33;;;12.61;48.79
76868;BME280;66168;45.478;11.060;2023-03-12T04:23:47;100141.65;;;12.63;48.95
76868;BME280;66168;45.478;11.060;2023-03-12T04:26:15;100142.31;;;12.64;48.88
76868;BME280;66168;45.478;11.060;2023-03-12T04:28:43;100149.38;;;12.68;48.93
76868;BME280;66168;45.478;11.060;2023-03-12T04:31:10;100151.80;;;12.68;48.51
76868;BME280;66168;45.478;11.060;2023-03-12T04:33:44;100154.10;;;12.69;48.82
76868;BME280;66168;45.478;11.060;2023-03-12T04:36:11;100154.77;;;12.72;48.69
76868;BME280;66168;45.478;11.060;2023-03-12T04:38:41;100157.30;;;12.73;48.71
76868;BME280;66168;45.478;11.060;2023-03-12T04:41:13;100163.30;;;12.73;48.80
76868;BME280;66168;45.478;11.060;2023-03-12T04:43:49;100165.73;;;12.73;49.12
76868;BME280;66168;45.478;11.060;2023-03-12T04:46:17;100167.97;;;12.68;49.22
76868;BME280;66168;45.478;11.060;2023-03-12T04:48:45;100174.20;;;12.65;49.23
76868;BME280;66168;45.478;11.060;2023-03-12T04:51:12;100178.66;;;12.59;49.20
76868;BME280;66168;45.478;11.060;2023-03-12T04:53:39;100184.72;;;12.49;48.67
76868;BME280;66168;45.478;11.060;2023-03-12T04:56:08;100189.23;;;12.42;49.10
76868;BME280;66168;45.478;11.060;2023-03-12T04:58:35;100189.93;;;12.38;49.41
76868;BME280;66168;45.478;11.060;2023-03-12T05:01:02;100192.79;;;12.34;50.02
76868;BME280;66168;45.478;11.060;2023-03-12T05:03:31;100193.69;;;12.26;50.35
76868;BME280;66168;45.478;11.060;2023-03-12T05:05:58;100199.64;;;12.21;50.49
76868;BME280;66168;45.478;11.060;2023-03-12T05:08:25;100206.95;;;12.21;50.48
76868;BME280;66168;45.478;11.060;2023-03-12T05:10:52;100208.19;;;12.16;50.81
76868;BME280;66168;45.478;11.060;2023-03-12T05:13:21;100220.05;;;12.11;50.60
76868;BME280;66168;45.478;11.060;2023-03-12T05:15:50;100226.40;;;12.05;50.96
76868;BME280;66168;45.478;11.060;2023-03-12T05:18:18;100228.39;;;11.95;51.13
76868;BME280;66168;45.478;11.060;2023-03-12T05:21:00;100234.71;;;11.80;51.93
76868;BME280;66168;45.478;11.060;2023-03-12T05:23:28;100238.35;;;11.73;51.82
76868;BME280;66168;45.478;11.060;2023-03-12T05:25:56;100243.67;;;11.73;51.06
76868;BME280;66168;45.478;11.060;2023-03-12T05:28:23;100244.37;;;11.77;50.96
76868;BME280;66168;45.478;11.060;2023-03-12T05:30:57;100246.02;;;11.82;50.52
76868;BME280;66168;45.478;11.060;2023-03-12T05:33:25;100252.77;;;11.88;50.28
76868;BME280;66168;45.478;11.060;2023-03-12T05:35:53;100254.02;;;11.93;50.45
76868;BME280;66168;45.478;11.060;2023-03-12T05:38:20;100258.58;;;11.96;50.69
76868;BME280;66168;45.478;11.060;2023-03-12T05:40:55;100257.24;;;12.00;50.58
76868;BME280;66168;45.478;11.060;2023-03-12T05:43:23;100256.67;;;12.00;50.25
76868;BME280;66168;45.478;11.060;2023-03-12T05:45:51;100267.70;;;12.04;49.65
76868;BME280;66168;45.478;11.060;2023-03-12T05:48:19;100269.77;;;12.06;49.59
76868;BME280;66168;45.478;11.060;2023-03-12T05:50:47;100274.79;;;12.10;49.86
76868;BME280;66168;45.478;11.060;2023-03-12T05:53:14;100281.16;;;12.11;50.18
76868;BME280;66168;45.478;11.060;2023-03-12T05:55:42;100281.43;;;12.15;51.36
76868;BME280;66168;45.478;11.060;2023-03-12T05:58:09;100282.79;;;12.15;51.32
76868;BME280;66168;45.478;11.060;2023-03-12T06:00:36;100288.47;;;12.12;51.09
76868;BME280;66168;45.478;11.060;2023-03-12T06:03:06;100290.33;;;12.09;51.49
76868;BME280;66168;45.478;11.060;2023-03-12T06:05:35;100294.95;;;12.06;51.81
76868;BME280;66168;45.478;11.060;2023-03-12T06:08:03;100297.00;;;12.03;51.92
76868;BME280;66168;45.478;11.060;2023-03-12T06:10:31;100292.52;;;11.99;52.08
76868;BME280;66168;45.478;11.060;2023-03-12T06:12:58;100301.17;;;11.95;52.02
76868;BME280;66168;45.478;11.060;2023-03-12T06:15:25;100308.79;;;11.93;52.17
76868;BME280;66168;45.478;11.060;2023-03-12T06:17:51;100314.31;;;11.88;52.62
76868;BME280;66168;45.478;11.060;2023-03-12T06:20:18;100318.30;;;11.85;52.62
76868;BME280;66168;45.478;11.060;2023-03-12T06:22:45;100320.44;;;11.82;53.14
76868;BME280;66168;45.478;11.060;2023-03-12T06:25:11;100325.90;;;11.87;53.19
76868;BME280;66168;45.478;11.060;2023-03-12T06:27:39;100329.86;;;11.95;53.06
76868;BME280;66168;45.478;11.060;2023-03-12T06:30:07;100325.44;;;12.00;53.17
76868;BME280;66168;45.478;11.060;2023-03-12T06:32:34;100331.96;;;12.07;52.65
76868;BME280;66168;45.478;11.060;2023-03-12T06:35:01;100336.65;;;12.14;52.47
76868;BME280;66168;45.478;11.060;2023-03-12T06:37:29;100332.60;;;12.19;52.38
76868;BME280;66168;45.478;11.060;2023-03-12T06:39:56;100334.34;;;12.28;52.17
76868;BME280;66168;45.478;11.060;2023-03-12T06:42:23;100335.80;;;12.37;52.09
76868;BME280;66168;45.478;11.060;2023-03-12T06:44:52;100341.41;;;12.46;51.90
76868;BME280;66168;45.478;11.060;2023-03-12T06:47:19;100345.80;;;12.53;51.75
76868;BME280;66168;45.478;11.060;2023-03-12T06:49:46;100347.30;;;12.62;51.47
76868;BME280;66168;45.478;11.060;2023-03-12T06:52:13;100352.97;;;12.71;51.36
76868;BME280;66168;45.478;11.060;2023-03-12T06:54:39;100358.71;;;12.76;50.68
76868;BME280;66168;45.478;11.060;2023-03-12T06:57:06;100361.98;;;12.82;50.57
76868;BME280;66168;45.478;11.060;2023-03-12T06:59:33;100362.67;;;12.80;49.74
76868;BME280;66168;45.478;11.060;2023-03-12T07:02:00;100370.83;;;12.83;49.75
76868;BME280;66168;45.478;11.060;2023-03-12T07:04:27;100371.07;;;12.92;50.22
76868;BME280;66168;45.478;11.060;2023-03-12T07:06:54;100371.58;;;13.04;49.51
76868;BME280;66168;45.478;11.060;2023-03-12T07:09:20;100375.33;;;13.15;49.09
76868;BME280;66168;45.478;11.060;2023-03-12T07:11:47;100378.96;;;13.23;48.75
76868;BME280;66168;45.478;11.060;2023-03-12T07:14:14;100382.86;;;13.29;48.30
76868;BME280;66168;45.478;11.060;2023-03-12T07:16:40;100385.77;;;13.41;48.27
76868;BME280;66168;45.478;11.060;2023-03-12T07:19:07;100384.35;;;13.54;48.35
76868;BME280;66168;45.478;11.060;2023-03-12T07:21:33;100382.48;;;13.66;47.86
76868;BME280;66168;45.478;11.060;2023-03-12T07:24:00;100381.16;;;13.78;47.38
76868;BME280;66168;45.478;11.060;2023-03-12T07:26:33;100386.14;;;13.88;47.30
76868;BME280;66168;45.478;11.060;2023-03-12T07:29:02;100384.92;;;13.97;47.93
76868;BME280;66168;45.478;11.060;2023-03-12T07:31:29;100391.47;;;13.96;47.12
76868;BME280;66168;45.478;11.060;2023-03-12T07:33:56;100392.95;;;13.94;46.02
76868;BME280;66168;45.478;11.060;2023-03-12T07:36:23;100397.36;;;14.09;46.83
76868;BME280;66168;45.478;11.060;2023-03-12T07:38:50;100404.46;;;14.27;46.79
76868;BME280;66168;45.478;11.060;2023-03-12T07:41:16;100408.72;;;14.41;46.67
76868;BME280;66168;45.478;11.060;2023-03-12T07:43:43;100411.27;;;14.49;46.17
76868;BME280;66168;45.478;11.060;2023-03-12T07:46:10;100416.15;;;14.65;46.20
76868;BME280;66168;45.478;11.060;2023-03-12T07:48:37;100418.33;;;14.74;46.27
76868;BME280;66168;45.478;11.060;2023-03-12T07:51:06;100420.91;;;14.86;45.69
76868;BME280;66168;45.478;11.060;2023-03-12T07:53:32;100421.56;;;14.86;44.96
76868;BME280;66168;45.478;11.060;2023-03-12T07:55:59;100423.95;;;14.91;44.47
76868;BME280;66168;45.478;11.060;2023-03-12T07:58:26;100423.05;;;14.90;44.72
76868;BME280;66168;45.478;11.060;2023-03-12T08:00:56;100425.27;;;14.86;43.99
76868;BME280;66168;45.478;11.060;2023-03-12T08:03:23;100426.12;;;14.96;44.23
76868;BME280;66168;45.478;11.060;2023-03-12T08:06:01;100431.64;;;14.96;42.86
76868;BME280;66168;45.478;11.060;2023-03-12T08:08:29;100432.66;;;15.15;43.02
76868;BME280;66168;45.478;11.060;2023-03-12T08:10:58;100430.21;;;15.19;41.26
76868;BME280;66168;45.478;11.060;2023-03-12T08:13:26;100429.58;;;15.23;41.79
76868;BME280;66168;45.478;11.060;2023-03-12T08:15:53;100431.71;;;15.39;41.42
76868;BME280;66168;45.478;11.060;2023-03-12T08:18:20;100432.77;;;15.47;41.55
76868;BME280;66168;45.478;11.060;2023-03-12T08:20:52;100430.30;;;15.48;40.72
76868;BME280;66168;45.478;11.060;2023-03-12T08:23:20;100434.68;;;15.56;40.34
76868;BME280;66168;45.478;11.060;2023-03-12T08:25:48;100444.21;;;15.57;40.41
76868;BME280;66168;45.478;11.060;2023-03-12T08:28:15;100446.33;;;15.63;40.19
76868;BME280;66168;45.478;11.060;2023-03-12T08:30:46;100446.04;;;15.69;39.90
76868;BME280;66168;45.478;11.060;2023-03-12T08:33:13;100445.98;;;15.85;39.70
76868;BME280;66168;45.478;11.060;2023-03-12T08:35:40;100452.80;;;16.03;40.10
76868;BME280;66168;45.478;11.060;2023-03-12T08:38:07;100453.40;;;16.00;38.61
76868;BME280;66168;45.478;11.060;2023-03-12T08:40:34;100461.33;;;15.74;38.59
76868;BME280;66168;45.478;11.060;2023-03-12T08:43:01;100459.14;;;15.74;38.73
76868;BME280;66168;45.478;11.060;2023-03-12T08:45:28;100461.52;;;15.94;39.06
76868;BME280;66168;45.478;11.060;2023-03-12T08:47:55;100461.88;;;16.10;39.24
76868;BME280;66168;45.478;11.060;2023-03-12T08:50:22;100461.56;;;16.44;39.86
76868;BME280;66168;45.478;11.060;2023-03-12T08:52:51;100465.34;;;16.70;38.89
76868;BME280;66168;45.478;11.060;2023-03-12T08:55:18;100470.35;;;16.92;39.19
76868;BME280;66168;45.478;11.060;2023-03-12T08:57:44;100470.05;;;17.10;38.23
76868;BME280;66168;45.478;11.060;2023-03-12T09:00:11;100467.30;;;17.13;37.76
76868;BME280;66168;45.478;11.060;2023-03-12T09:02:44;100467.57;;;17.29;37.94
76868;BME280;66168;45.478;11.060;2023-03-12T09:05:12;100476.31;;;17.16;36.81
76868;BME280;66168;45.478;11.060;2023-03-12T09:07:39;100479.59;;;17.23;37.39
76868;BME280;66168;45.478;11.060;2023-03-12T09:10:06;100478.94;;;17.32;37.17
76868;BME280;66168;45.478;11.060;2023-03-12T09:12:33;100485.98;;;17.43;37.13
76868;BME280;66168;45.478;11.060;2023-03-12T09:15:00;100484.89;;;17.41;36.33
76868;BME280;66168;45.478;11.060;2023-03-12T09:17:30;100482.96;;;17.28;36.42
76868;BME280;66168;45.478;11.060;2023-03-12T09:19:57;100485.17;;;16.75;36.54
76868;BME280;66168;45.478;11.060;2023-03-12T09:22:23;100492.35;;;16.65;36.76
76868;BME280;66168;45.478;11.060;2023-03-12T09:24:50;100489.40;;;16.68;37.03
76868;BME280;66168;45.478;11.060;2023-03-12T09:27:17;100488.14;;;16.70;37.18
76868;BME280;66168;45.478;11.060;2023-03-12T09:29:44;100483.52;;;16.89;36.89
76868;BME280;66168;45.478;11.060;2023-03-12T09:32:24;100497.53;;;16.69;35.88
76868;BME280;66168;45.478;11.060;2023-03-12T09:34:53;100499.81;;;16.49;36.18
76868;BME280;66168;45.478;11.060;2023-03-12T09:37:19;100505.51;;;16.43;36.26
76868;BME280;66168;45.478;11.060;2023-03-12T09:39:50;100506.73;;;16.43;36.45
76868;BME280;66168;45.478;11.060;2023-03-12T09:42:27;100513.85;;;16.47;36.29
76868;BME280;66168;45.478;11.060;2023-03-12T09:44:59;100511.36;;;16.51;36.21
76868;BME280;66168;45.478;11.060;2023-03-12T09:47:30;100519.33;;;16.44;36.21
76868;BME280;66168;45.478;11.060;2023-03-12T09:50:23;100519.77;;;16.62;36.33
76868;BME280;66168;45.478;11.060;2023-03-12T09:52:54;100525.70;;;16.68;35.42
76868;BME280;66168;45.478;11.060;2023-03-12T09:55:23;100523.79;;;16.65;35.59
76868;BME280;66168;45.478;11.060;2023-03-12T09:57:51;100514.77;;;17.05;35.82
76868;BME280;66168;45.478;11.060;2023-03-12T10:00:23;100518.00;;;17.38;35.41
76868;BME280;66168;45.478;11.060;2023-03-12T10:06:00;100518.96;;;17.36;35.74
76868;BME280;66168;45.478;11.060;2023-03-12T10:11:11;100526.48;;;17.00;35.85
76868;BME280;66168;45.478;11.060;2023-03-12T10:16:36;100532.48;;;16.96;34.94
76868;BME280;66168;45.478;11.060;2023-03-12T10:21:53;100529.95;;;17.11;34.23
76868;BME280;66168;45.478;11.060;2023-03-12T10:24:33;100532.67;;;17.01;34.13
76868;BME280;66168;45.478;11.060;2023-03-12T10:27:10;100531.42;;;17.14;34.30
76868;BME280;66168;45.478;11.060;2023-03-12T10:29:40;100527.85;;;17.37;33.88
76868;BME280;66168;45.478;11.060;2023-03-12T10:34:41;100533.67;;;17.39;33.65
76868;BME280;66168;45.478;11.060;2023-03-12T10:37:29;100541.39;;;17.28;33.60
76868;BME280;66168;45.478;11.060;2023-03-12T10:39:57;100540.95;;;17.22;33.87
76868;BME280;66168;45.478;11.060;2023-03-12T10:42:28;100542.68;;;17.18;33.66
76868;BME280;66168;45.478;11.060;2023-03-12T10:45:26;100547.80;;;17.18;33.46
76868;BME280;66168;45.478;11.060;2023-03-12T10:48:06;100544.27;;;17.17;33.22
76868;BME280;66168;45.478;11.060;2023-03-12T10:50:38;100547.59;;;17.30;33.05
76868;BME280;66168;45.478;11.060;2023-03-12T10:56:09;100550.20;;;16.99;33.47
76868;BME280;66168;45.478;11.060;2023-03-12T11:01:15;100548.52;;;17.26;33.83
76868;BME280;66168;45.478;11.060;2023-03-12T11:03:42;100552.89;;;17.26;34.05
76868;BME280;66168;45.478;11.060;2023-03-12T11:06:26;100542.80;;;17.54;34.36
76868;BME280;66168;45.478;11.060;2023-03-12T11:11:47;100556.98;;;17.88;33.26
76868;BME280;66168;45.478;11.060;2023-03-12T11:16:43;100550.20;;;17.90;34.10
76868;BME280;66168;45.478;11.060;2023-03-12T11:19:13;100554.04;;;18.11;34.05
76868;BME280;66168;45.478;11.060;2023-03-12T11:21:56;100558.77;;;18.07;34.14
76868;BME280;66168;45.478;11.060;2023-03-12T11:24:24;100562.61;;;18.31;34.05
76868;BME280;66168;45.478;11.060;2023-03-12T11:27:12;100557.29;;;18.53;34.13
76868;BME280;66168;45.478;11.060;2023-03-12T11:29:44;100561.45;;;18.84;34.42
76868;BME280;66168;45.478;11.060;2023-03-12T11:34:49;100560.77;;;18.40;33.66
76868;BME280;66168;45.478;11.060;2023-03-12T11:46:15;100549.58;;;18.56;34.52
76868;BME280;66168;45.478;11.060;2023-03-12T11:56:36;100554.33;;;19.04;34.84
76868;BME280;66168;45.478;11.060;2023-03-12T12:02:33;100557.05;;;19.07;33.49
76868;BME280;66168;45.478;11.060;2023-03-12T12:05:17;100551.52;;;18.97;34.15
76868;BME280;66168;45.478;11.060;2023-03-12T12:10:30;100559.47;;;19.02;34.59
76868;BME280;66168;45.478;11.060;2023-03-12T12:27:25;100543.41;;;18.78;34.46
76868;BME280;66168;45.478;11.060;2023-03-12T12:35:38;100546.80;;;18.29;34.84
76868;BME280;66168;45.478;11.060;2023-03-12T12:38:17;100534.90;;;18.65;34.85
76868;BME280;66168;45.478;11.060;2023-03-12T12:40:49;100530.96;;;18.96;34.24
76868;BME280;66168;45.478;11.060;2023-03-12T12:43:25;100535.10;;;18.71;34.04
76868;BME280;66168;45.478;11.060;2023-03-12T12:45:59;100531.02;;;18.52;34.39
76868;BME280;66168;45.478;11.060;2023-03-12T12:48:37;100528.20;;;18.54;34.75
76868;BME280;66168;45.478;11.060;2023-03-12T12:51:06;100528.96;;;18.84;34.70
76868;BME280;66168;45.478;11.060;2023-03-12T12:56:47;100531.13;;;19.37;34.00
76868;BME280;66168;45.478;11.060;2023-03-12T12:59:23;100534.66;;;18.93;33.99
76868;BME280;66168;45.478;11.060;2023-03-12T13:01:54;100529.14;;;18.83;33.67
76868;BME280;66168;45.478;11.060;2023-03-12T13:04:29;100522.98;;;18.85;34.12
76868;BME280;66168;45.478;11.060;2023-03-12T13:09:43;100519.66;;;19.35;33.99
76868;BME280;66168;45.478;11.060;2023-03-12T13:12:27;100528.05;;;18.96;34.22
76868;BME280;66168;45.478;11.060;2023-03-12T13:14:56;100524.39;;;18.85;34.78
76868;BME280;66168;45.478;11.060;2023-03-12T13:17:33;100526.60;;;18.96;34.92
76868;BME280;66168;45.478;11.060;2023-03-12T13:28:32;100529.09;;;19.01;35.03
76868;BME280;66168;45.478;11.060;2023-03-12T13:34:06;100537.67;;;18.46;35.90
76868;BME280;66168;45.478;11.060;2023-03-12T13:36:37;100536.90;;;18.72;35.83
76868;BME280;66168;45.478;11.060;2023-03-12T13:41:38;100535.92;;;19.28;35.51
76868;BME280;66168;45.478;11.060;2023-03-12T13:47:25;100548.80;;;18.70;36.06
76868;BME280;66168;45.478;11.060;2023-03-12T13:50:00;100546.50;;;18.58;36.48
76868;BME280;66168;45.478;11.060;2023-03-12T13:55:48;100560.60;;;18.28;36.74
76868;BME280;66168;45.478;11.060;2023-03-12T13:58:17;100558.19;;;18.32;36.41
76868;BME280;66168;45.478;11.060;2023-03-12T14:01:04;100553.96;;;18.38;36.69
76868;BME280;66168;45.478;11.060;2023-03-12T14:03:40;100554.14;;;18.34;36.64
76868;BME280;66168;45.478;11.060;2023-03-12T14:06:11;100550.77;;;18.26;36.84
76868;BME280;66168;45.478;11.060;2023-03-12T14:16:51;100553.30;;;17.70;37.57
76868;BME280;66168;45.478;11.060;2023-03-12T14:19:25;100557.64;;;17.32;38.17
76868;BME280;66168;45.478;11.060;2023-03-12T14:21:55;100554.63;;;17.11;38.39
76868;BME280;66168;45.478;11.060;2023-03-12T14:24:27;100550.17;;;17.05;38.26
76868;BME280;66168;45.478;11.060;2023-03-12T14:26:56;100549.84;;;16.88;38.34
76868;BME280;66168;45.478;11.060;2023-03-12T14:29:44;100550.75;;;16.84;38.88
76868;BME280;66168;45.478;11.060;2023-03-12T14:32:18;100547.63;;;16.56;39.41
76868;BME280;66168;45.478;11.060;2023-03-12T14:34:51;100542.58;;;16.50;39.91
76868;BME280;66168;45.478;11.060;2023-03-12T14:37:23;100540.45;;;16.49;39.78
76868;BME280;66168;45.478;11.060;2023-03-12T14:39:57;100545.84;;;16.38;40.21
76868;BME280;66168;45.478;11.060;2023-03-12T14:42:31;100542.73;;;16.46;40.08
76868;BME280;66168;45.478;11.060;2023-03-12T14:45:01;100545.90;;;16.41;40.04
76868;BME280;66168;45.478;11.060;2023-03-12T14:47:29;100545.09;;;16.38;40.55